Terminal Aerodrome Forecast
Issued by NWS

Home | Current Version | Previous Version | Text Only | Print | Product List | Glossary Off
Versions: 1 2 3 4 5 6 7 8 9 10 11 12 13

000
FTUS43 KOAX 011137
TAFCDR
TAF
KCDR 011137Z 0112/0212 32005KT P6SM FEW120
     FM011700 36012G20KT P6SM SCT120
     FM012200 03006KT P6SM SCT100
     FM020200 VRB04KT P6SM VCTS BKN080CB=

USA.gov is the U.S. government's official web portal to all federal, state and local government web resources and services.